Time;durP1;ratioP1;P1;durP2;ratioP2;P2;SDS_P1;SDS_P2;PMS_P1;PMS_P2;Temp;Humidity;BMP_temperature;BMP_pressure;BME280_temperature;BME280_humidity;BME280_pressure;Samples;Min_cycle;Max_cycle;Signal;HPM_P1;HPM_P2
2022/01/29 00:00:11;;;;;;;5.75;2.50;;;;;;;4.39;47.82;100211.78;3132022;28;20113;-65
2022/01/29 00:01:43;;;;;;;6.95;2.80;;;;;;;4.35;47.65;100210.97;3128110;28;20045;-65
2022/01/29 00:03:15;;;;;;;5.95;2.55;;;;;;;4.34;47.84;100214.41;3123437;28;20119;-65
2022/01/29 00:04:47;;;;;;;8.90;2.90;;;;;;;4.33;47.92;100217.88;3123966;28;20054;-65
2022/01/29 00:06:19;;;;;;;7.22;2.55;;;;;;;4.30;47.94;100208.44;3129927;28;20500;-65
2022/01/29 00:07:51;;;;;;;8.32;2.97;;;;;;;4.28;47.89;100211.91;3125712;28;20080;-65
2022/01/29 00:09:23;;;;;;;5.95;3.00;;;;;;;4.28;47.79;100212.75;3128186;28;20049;-65
2022/01/29 00:11:01;;;;;;;8.10;3.10;;;;;;;4.26;47.91;100216.22;3127380;28;20502;-65
2022/01/29 00:12:34;;;;;;;8.40;3.50;;;;;;;4.24;47.94;100221.41;3123086;28;20091;-65
2022/01/29 00:14:06;;;;;;;8.60;3.10;;;;;;;4.20;47.71;100218.88;3129740;28;20445;-65
2022/01/29 00:15:38;;;;;;;8.02;2.92;;;;;;;4.19;47.82;100209.44;3128253;28;20092;-65
2022/01/29 00:17:11;;;;;;;10.30;3.05;;;;;;;4.19;47.82;100215.47;3125945;28;20203;-65
2022/01/29 00:18:43;;;;;;;9.43;3.15;;;;;;;4.18;47.91;100213.75;3130067;28;20048;-65
2022/01/29 00:20:15;;;;;;;9.93;3.20;;;;;;;4.15;47.85;100212.94;3121307;28;20510;-65
2022/01/29 00:21:47;;;;;;;8.13;2.70;;;;;;;4.16;47.97;100212.06;3129768;28;20107;-65
2022/01/29 00:23:19;;;;;;;6.25;2.90;;;;;;;4.14;47.78;100214.69;3126160;28;20163;-64
2022/01/29 00:24:51;;;;;;;8.50;3.15;;;;;;;4.15;47.89;100213.81;3131696;28;20114;-65
2022/01/29 00:26:25;;;;;;;4.85;2.47;;;;;;;4.14;47.79;100206.94;3129072;28;20451;-65
2022/01/29 00:27:59;;;;;;;11.07;2.85;;;;;;;4.14;47.94;100200.91;3123234;28;20053;-65
2022/01/29 00:29:34;;;;;;;6.97;3.03;;;;;;;4.14;47.93;100216.38;3127480;28;20056;-65
2022/01/29 00:31:10;;;;;;;6.20;3.10;;;;;;;4.13;47.83;100206.94;3130874;28;20044;-64
2022/01/29 00:32:42;;;;;;;6.38;3.00;;;;;;;4.13;47.79;100210.38;3126129;28;20048;-64
2022/01/29 00:34:14;;;;;;;6.18;2.85;;;;;;;4.13;47.87;100206.94;3128617;28;20049;-65
2022/01/29 00:35:46;;;;;;;5.38;2.92;;;;;;;4.12;47.89;100213.00;3125876;28;20097;-65
2022/01/29 00:37:17;;;;;;;6.43;2.88;;;;;;;4.12;47.82;100216.41;3126516;28;20045;-65
2022/01/29 00:38:49;;;;;;;5.07;2.42;;;;;;;4.14;47.79;100211.22;3131527;28;20052;-65
2022/01/29 00:40:22;;;;;;;7.00;2.97;;;;;;;4.11;47.96;100217.28;3132160;28;20049;-65
2022/01/29 00:41:54;;;;;;;7.88;3.00;;;;;;;4.10;47.98;100215.56;3128816;28;20041;-65
2022/01/29 00:43:27;;;;;;;5.88;2.65;;;;;;;3.96;47.91;100196.84;3123456;28;20053;-65
2022/01/29 00:44:59;;;;;;;5.57;2.80;;;;;;;4.09;47.85;100219.03;3123710;28;20053;-65
2022/01/29 00:46:31;;;;;;;7.07;3.25;;;;;;;4.09;47.87;100221.59;3128502;28;20114;-65
2022/01/29 00:48:03;;;;;;;6.90;2.92;;;;;;;4.08;47.90;100222.47;3125409;28;20112;-65
2022/01/29 00:49:35;;;;;;;6.25;2.80;;;;;;;4.07;47.93;100220.75;3126933;28;20084;-66
2022/01/29 00:51:06;;;;;;;6.20;2.72;;;;;;;4.05;47.81;100220.81;3127121;28;20053;-65
2022/01/29 00:52:39;;;;;;;8.25;2.78;;;;;;;4.01;47.91;100219.09;3121646;28;20053;-65
2022/01/29 00:54:10;;;;;;;7.00;3.10;;;;;;;4.04;47.77;100221.66;3128231;28;20053;-65
2022/01/29 00:55:43;;;;;;;5.63;3.15;;;;;;;4.04;47.72;100219.06;3122932;28;20050;-66
2022/01/29 00:57:14;;;;;;;7.78;2.80;;;;;;;4.01;47.83;100216.53;3124003;28;20546;-65
2022/01/29 00:58:47;;;;;;;6.10;2.95;;;;;;;4.01;47.79;100216.53;3130278;28;20056;-65
2022/01/29 01:00:19;;;;;;;7.00;2.97;;;;;;;3.96;47.89;100225.19;3120121;28;20458;-65
2022/01/29 01:01:51;;;;;;;6.07;2.65;;;;;;;3.97;47.99;100217.44;3128148;28;20045;-65
2022/01/29 01:03:23;;;;;;;6.07;2.97;;;;;;;3.96;48.06;100220.88;3125294;28;20050;-65
2022/01/29 01:04:55;;;;;;;5.45;2.90;;;;;;;3.96;48.10;100223.47;3121328;28;20079;-65
2022/01/29 01:06:27;;;;;;;7.47;3.10;;;;;;;3.96;48.04;100217.44;3130226;28;20099;-65
2022/01/29 01:07:59;;;;;;;6.88;3.35;;;;;;;3.96;47.94;100230.34;3123825;28;20049;-65
2022/01/29 01:09:31;;;;;;;5.57;3.10;;;;;;;3.95;48.09;100220.91;3125605;28;20558;-65
2022/01/29 01:11:04;;;;;;;7.93;3.43;;;;;;;3.94;47.96;100221.78;3130346;28;20119;-65
2022/01/29 01:12:36;;;;;;;7.72;3.13;;;;;;;3.91;48.09;100211.53;3120189;28;20369;-65
2022/01/29 01:14:09;;;;;;;7.30;3.03;;;;;;;3.94;48.05;100216.63;3127343;28;20041;-65
2022/01/29 01:15:41;;;;;;;6.18;2.88;;;;;;;3.92;47.95;100213.22;3127238;28;20057;-65
2022/01/29 01:17:13;;;;;;;5.80;3.30;;;;;;;3.60;48.07;100153.44;3121534;28;20527;-65
2022/01/29 01:18:45;;;;;;;6.93;3.10;;;;;;;3.92;48.04;100203.75;3130312;28;20052;-65
2022/01/29 01:20:17;;;;;;;6.13;2.72;;;;;;;3.92;47.96;100200.34;3123617;28;20084;-65
2022/01/29 01:21:49;;;;;;;6.38;3.10;;;;;;;3.90;47.87;100197.75;3126350;28;20446;-65
2022/01/29 01:23:21;;;;;;;9.82;2.85;;;;;;;3.65;48.15;100156.84;3130968;28;20729;-66
2022/01/29 01:24:53;;;;;;;5.60;2.30;;;;;;;3.88;47.93;100192.66;3128556;28;20049;-65
2022/01/29 01:26:25;;;;;;;6.20;2.88;;;;;;;3.88;47.99;100194.38;3129550;28;20206;-65
2022/01/29 01:27:57;;;;;;;7.30;3.22;;;;;;;3.87;47.91;100183.22;3131658;28;20449;-65
2022/01/29 01:29:30;;;;;;;6.13;2.83;;;;;;;3.88;47.95;100184.06;3129779;28;20491;-65
2022/01/29 01:31:02;;;;;;;7.43;2.97;;;;;;;3.65;47.93;100153.41;3128530;28;20530;-65
2022/01/29 01:32:34;;;;;;;5.25;2.95;;;;;;;3.83;47.95;100184.09;3123919;28;20485;-65
2022/01/29 01:34:06;;;;;;;8.80;2.90;;;;;;;3.84;47.99;100184.94;3127077;28;20049;-65
2022/01/29 01:35:43;;;;;;;6.05;3.03;;;;;;;3.84;47.93;100185.78;3128893;28;20063;-65
2022/01/29 01:37:23;;;;;;;6.13;3.15;;;;;;;3.81;47.98;100191.00;3122891;28;20048;-65
2022/01/29 01:39:05;;;;;;;7.50;3.03;;;;;;;3.83;47.99;100196.13;3128367;28;20538;-65
2022/01/29 01:40:39;;;;;;;6.95;2.88;;;;;;;3.82;48.00;100184.13;3119518;28;20645;-64
2022/01/29 01:42:11;;;;;;;7.72;2.78;;;;;;;3.81;47.93;100188.41;3126075;28;20053;-65
2022/01/29 01:43:43;;;;;;;6.05;2.78;;;;;;;3.82;47.82;100186.72;3125492;28;20600;-65
2022/01/29 01:45:16;;;;;;;5.97;2.95;;;;;;;3.82;48.00;100187.56;3120296;28;20054;-65
2022/01/29 01:46:48;;;;;;;5.43;2.97;;;;;;;3.79;47.99;100190.19;3128888;28;20048;-64
2022/01/29 01:48:20;;;;;;;5.57;3.03;;;;;;;3.80;48.05;100191.88;3122502;28;20065;-64
2022/01/29 01:49:52;;;;;;;7.20;3.30;;;;;;;3.60;48.13;100157.75;3123868;28;20151;-65
2022/01/29 01:51:24;;;;;;;6.78;3.03;;;;;;;3.79;48.00;100195.31;3128525;28;20107;-65
2022/01/29 01:52:56;;;;;;;5.63;2.88;;;;;;;3.79;48.00;100197.06;3125178;28;20045;-65
2022/01/29 01:54:28;;;;;;;7.68;3.22;;;;;;;3.78;48.20;100198.75;3127925;28;20041;-65
2022/01/29 01:56:00;;;;;;;7.10;3.28;;;;;;;3.78;48.09;100195.31;3126580;28;20097;-65
2022/01/29 01:57:32;;;;;;;6.18;2.55;;;;;;;3.76;48.12;100195.34;3123441;28;20115;-65
2022/01/29 01:59:03;;;;;;;9.20;3.38;;;;;;;3.75;48.08;100190.22;3129035;28;20477;-65
2022/01/29 02:00:37;;;;;;;7.18;2.72;;;;;;;3.75;48.25;100191.06;3122707;28;20441;-65
2022/01/29 02:02:09;;;;;;;6.22;3.33;;;;;;;3.71;48.08;100189.41;3124374;28;20135;-65
2022/01/29 02:03:40;;;;;;;6.18;2.70;;;;;;;3.72;48.12;100195.41;3128979;28;20052;-65
2022/01/29 02:05:13;;;;;;;5.78;2.42;;;;;;;3.68;48.10;100181.72;3120643;28;20060;-64
2022/01/29 02:06:47;;;;;;;6.32;3.08;;;;;;;3.68;47.89;100183.44;3127358;28;20118;-65
2022/01/29 02:08:18;;;;;;;;;;;;;;;3.49;48.22;100187.91;3131558;28;20106;-65
2022/01/29 02:09:50;;;;;;;7.13;2.60;;;;;;;3.52;48.25;100183.59;3124776;28;19925;-64
2022/01/29 02:11:22;;;;;;;6.38;2.58;;;;;;;3.56;48.08;100185.25;3128591;28;20505;-65
2022/01/29 02:13:00;;;;;;;9.20;2.85;;;;;;;3.59;48.04;100185.22;3122781;28;20052;-64
2022/01/29 02:14:33;;;;;;;6.85;2.97;;;;;;;3.58;48.10;100180.09;3126799;28;20104;-65
2022/01/29 02:16:07;;;;;;;5.75;2.50;;;;;;;3.56;48.02;100179.25;3123155;28;20073;-65
2022/01/29 02:17:37;;;;;;;;;;;;;;;3.35;48.25;100181.19;3122437;28;20053;-64
2022/01/29 02:19:09;;;;;;;5.93;2.72;;;;;;;3.39;48.26;100187.16;3129814;28;20070;-65
2022/01/29 02:20:44;;;;;;;5.03;2.40;;;;;;;3.26;48.16;100155.53;3119968;28;20058;-65
2022/01/29 02:22:17;;;;;;;5.32;2.60;;;;;;;3.48;48.02;100191.34;3125289;28;20466;-65
2022/01/29 02:23:49;;;;;;;8.32;2.67;;;;;;;3.45;47.92;100174.22;3130011;28;20481;-65
2022/01/29 02:25:32;;;;;;;5.72;2.20;;;;;;;3.47;47.81;100174.22;3122942;28;20080;-65
2022/01/29 02:27:04;;;;;;;4.03;1.98;;;;;;;3.14;47.77;100138.50;3131905;28;20099;-67
2022/01/29 02:28:36;;;;;;;5.25;1.88;;;;;;;3.42;47.74;100171.66;3124075;28;20747;-65
2022/01/29 02:30:09;;;;;;;5.80;2.50;;;;;;;3.43;47.66;100175.94;3126281;28;20041;-65
2022/01/29 02:31:47;;;;;;;3.88;1.90;;;;;;;3.41;47.65;100167.41;3131539;28;20083;-65
2022/01/29 02:33:19;;;;;;;4.00;2.03;;;;;;;3.35;47.74;100168.31;3122133;28;20130;-65
2022/01/29 02:34:51;;;;;;;4.70;2.03;;;;;;;3.37;47.43;100176.00;3131071;28;20522;-65
2022/01/29 02:36:23;;;;;;;4.45;2.03;;;;;;;3.35;47.52;100170.03;3127163;28;20127;-65
2022/01/29 02:37:57;;;;;;;4.38;2.05;;;;;;;3.35;47.57;100164.91;3125894;28;20441;-65
2022/01/29 02:39:29;;;;;;;6.82;2.00;;;;;;;3.33;47.56;100169.19;3130672;28;20433;-65
2022/01/29 02:41:03;;;;;;;4.65;1.90;;;;;;;3.32;47.49;100173.50;3122937;28;20201;-65
2022/01/29 02:42:35;;;;;;;4.28;2.20;;;;;;;3.31;47.32;100182.09;3128645;28;20041;-65
2022/01/29 02:44:08;;;;;;;4.93;2.25;;;;;;;3.32;47.41;100176.06;3130378;28;20052;-65
2022/01/29 02:45:41;;;;;;;;;;;;;;;3.12;47.70;100180.53;3122242;28;20049;-64
2022/01/29 02:47:27;;;;;;;4.45;2.15;;;;;;;3.17;47.65;100176.22;3129997;28;20581;-65
2022/01/29 02:48:59;;;;;;;4.75;2.50;;;;;;;3.22;47.78;100186.44;3122009;28;20172;-65
2022/01/29 02:50:30;;;;;;;5.32;1.90;;;;;;;3.23;47.48;100186.44;3127063;28;20068;-65
2022/01/29 02:52:03;;;;;;;3.38;1.80;;;;;;;3.25;47.53;100192.41;3126434;28;20049;-65
2022/01/29 02:53:36;;;;;;;4.85;2.60;;;;;;;3.29;47.39;100190.69;3123312;28;20508;-65
2022/01/29 02:55:08;;;;;;;5.57;2.33;;;;;;;3.26;47.38;100185.56;3131632;28;20060;-65
2022/01/29 02:56:41;;;;;;;8.38;2.45;;;;;;;3.25;47.38;100187.28;3126923;28;20047;-65
2022/01/29 02:58:12;;;;;;;6.85;2.13;;;;;;;3.26;47.28;100186.41;3127782;28;20134;-65
2022/01/29 02:59:44;;;;;;;5.50;2.20;;;;;;;3.25;47.37;100187.28;3130109;28;20508;-65
2022/01/29 03:01:16;;;;;;;3.97;1.88;;;;;;;3.25;47.16;100187.28;3122541;28;20049;-66
2022/01/29 03:02:48;;;;;;;4.38;1.70;;;;;;;3.23;47.17;100190.75;3130155;28;20053;-66
2022/01/29 03:04:20;;;;;;;4.63;2.00;;;;;;;3.24;47.03;100195.03;3126200;28;20115;-65
2022/01/29 03:05:53;;;;;;;7.20;1.95;;;;;;;3.25;47.08;100186.41;3125474;28;20048;-65
2022/01/29 03:07:25;;;;;;;4.88;1.90;;;;;;;3.24;47.10;100185.56;3131280;28;20107;-65
2022/01/29 03:08:58;;;;;;;4.97;1.75;;;;;;;3.22;47.01;100182.16;3122705;28;20119;-65
2022/01/29 03:10:30;;;;;;;5.00;2.30;;;;;;;3.22;47.19;100182.16;3129126;28;20107;-65
2022/01/29 03:12:02;;;;;;;5.85;2.25;;;;;;;3.23;47.07;100183.03;3132070;28;20049;-65
2022/01/29 03:13:34;;;;;;;3.53;1.65;;;;;;;3.22;46.92;100178.72;3125324;28;20107;-65
2022/01/29 03:15:07;;;;;;;4.72;2.00;;;;;;;3.20;46.86;100171.03;3129954;28;20508;-65
2022/01/29 03:16:37;;;;;;;6.40;1.85;;;;;;;3.20;46.97;100173.63;3121780;28;20503;-65
2022/01/29 03:18:09;;;;;;;12.75;2.70;;;;;;;3.18;47.01;100170.19;3124857;28;20110;-65
2022/01/29 03:19:41;;;;;;;7.47;2.13;;;;;;;3.14;47.06;100169.38;3132208;28;20051;-65
2022/01/29 03:21:13;;;;;;;3.75;2.00;;;;;;;3.16;46.99;100182.22;3122412;28;20049;-65
2022/01/29 03:22:45;;;;;;;5.57;2.20;;;;;;;3.13;47.12;100180.50;3129498;28;20040;-65
2022/01/29 03:24:18;;;;;;;4.47;2.05;;;;;;;3.13;47.01;100182.25;3131502;28;20076;-66
2022/01/29 03:25:50;;;;;;;5.72;2.22;;;;;;;3.10;47.00;100179.69;3124457;28;20586;-66
2022/01/29 03:27:22;;;;;;;5.07;2.30;;;;;;;3.09;46.97;100180.56;3130411;28;20422;-65
2022/01/29 03:28:54;;;;;;;6.07;2.13;;;;;;;3.09;47.17;100188.28;3126833;28;20053;-67
2022/01/29 03:30:26;;;;;;;6.07;2.38;;;;;;;3.07;47.14;100182.28;3126692;28;20053;-66
2022/01/29 03:31:57;;;;;;;7.68;2.40;;;;;;;3.04;47.18;100187.47;3127227;28;20107;-64
2022/01/29 03:33:29;;;;;;;4.57;2.08;;;;;;;3.04;47.21;100184.88;3122208;28;20119;-66
2022/01/29 03:35:01;;;;;;;4.88;2.25;;;;;;;2.79;47.04;100151.66;3128871;28;20096;-66
2022/01/29 03:36:33;;;;;;;4.72;2.20;;;;;;;2.99;47.13;100189.22;3123845;28;20510;-64
2022/01/29 03:38:05;;;;;;;4.32;2.00;;;;;;;2.97;47.13;100195.22;3125883;28;20045;-64
2022/01/29 03:39:38;;;;;;;6.75;2.22;;;;;;;2.96;47.17;100195.25;3129018;28;20053;-66
2022/01/29 03:41:13;;;;;;;6.38;2.33;;;;;;;2.92;47.13;100194.41;3121570;28;20056;-64
2022/01/29 03:42:56;;;;;;;4.47;1.80;;;;;;;2.90;47.03;100198.72;3128146;28;20132;-66
2022/01/29 03:44:28;;;;;;;4.15;1.92;;;;;;;2.86;47.17;100202.16;3126645;28;20045;-66
2022/01/29 03:46:00;;;;;;;6.07;1.90;;;;;;;2.86;47.25;100203.91;3123962;28;20494;-66
2022/01/29 03:47:31;;;;;;;5.55;2.35;;;;;;;2.83;47.25;100202.19;3129489;28;20127;-67
2022/01/29 03:49:03;;;;;;;6.15;2.20;;;;;;;2.83;47.30;100203.91;3123007;28;20049;-66
2022/01/29 03:50:36;;;;;;;3.95;1.77;;;;;;;2.83;47.35;100209.91;3126019;28;20570;-66
2022/01/29 03:52:08;;;;;;;6.68;2.20;;;;;;;2.80;47.40;100214.22;3130201;28;20488;-66
2022/01/29 03:53:40;;;;;;;5.65;2.05;;;;;;;2.79;47.55;100208.25;3122158;28;20053;-66
2022/01/29 03:55:13;;;;;;;4.95;2.25;;;;;;;2.77;47.56;100207.38;3128938;28;20057;-66
2022/01/29 03:56:45;;;;;;;;;;;;;;;2.57;47.85;100215.22;3126976;28;20438;-65
2022/01/29 03:58:17;;;;;;;7.50;2.30;;;;;;;2.62;48.06;100208.34;3131421;28;20275;-65
2022/01/29 03:59:48;;;;;;;4.90;2.40;;;;;;;2.67;47.88;100203.19;3130149;28;20466;-65
2022/01/29 04:01:20;;;;;;;7.05;2.97;;;;;;;2.69;48.11;100204.00;3122926;28;20127;-66
2022/01/29 04:02:51;;;;;;;8.45;3.05;;;;;;;2.70;48.05;100204.00;3126312;28;20099;-66
2022/01/29 04:04:23;;;;;;;6.72;2.75;;;;;;;2.70;48.18;100209.16;3129981;28;20551;-65
2022/01/29 04:05:55;;;;;;;7.47;2.65;;;;;;;2.70;48.13;100201.44;3125093;28;20045;-65
2022/01/29 04:07:27;;;;;;;6.47;3.25;;;;;;;2.71;48.32;100210.00;3129855;28;20470;-65
2022/01/29 04:09:02;;;;;;;9.10;3.15;;;;;;;2.70;48.24;100209.16;3126666;28;20049;-65
2022/01/29 04:10:36;;;;;;;6.00;2.90;;;;;;;2.71;48.36;100213.41;3129924;28;20041;-65
2022/01/29 04:12:08;;;;;;;7.38;2.97;;;;;;;2.73;48.55;100213.44;3131247;28;20059;-66
2022/01/29 04:13:43;;;;;;;6.10;3.20;;;;;;;2.67;48.64;100205.75;3122982;28;20130;-66
2022/01/29 04:15:15;;;;;;;8.13;2.90;;;;;;;2.67;48.67;100203.19;3128873;28;20045;-66
2022/01/29 04:16:47;;;;;;;7.20;2.90;;;;;;;2.71;48.84;100207.44;3127879;28;20048;-66
2022/01/29 04:18:19;;;;;;;9.77;3.05;;;;;;;2.71;48.67;100204.84;3125439;28;20057;-66
2022/01/29 04:19:50;;;;;;;9.07;2.53;;;;;;;2.70;48.91;100198.88;3130775;28;20044;-66
2022/01/29 04:21:22;;;;;;;9.52;2.97;;;;;;;2.70;48.87;100203.16;3120969;28;20053;-66
2022/01/29 04:22:54;;;;;;;5.55;2.67;;;;;;;2.70;49.03;100205.72;3129051;28;20045;-66
2022/01/29 04:24:26;;;;;;;9.02;4.35;;;;;;;2.69;48.96;100206.56;3128119;28;20053;-65
2022/01/29 04:26:00;;;;;;;11.15;5.60;;;;;;;2.71;48.84;100212.56;3124025;28;20102;-65
2022/01/29 04:27:36;;;;;;;7.90;3.17;;;;;;;2.68;49.06;100223.72;3127651;28;20442;-65
2022/01/29 04:29:08;;;;;;;7.68;2.97;;;;;;;2.68;49.19;100210.03;3123664;28;20060;-65
2022/01/29 04:30:45;;;;;;;6.35;2.63;;;;;;;2.67;49.03;100208.31;3126435;28;20080;-65
2022/01/29 04:32:20;;;;;;;7.90;2.78;;;;;;;2.68;49.22;100210.03;3130461;28;20060;-65
2022/01/29 04:33:52;;;;;;;5.07;2.88;;;;;;;2.67;49.28;100214.31;3122421;28;20056;-65
2022/01/29 04:35:23;;;;;;;11.18;4.03;;;;;;;2.68;49.32;100216.00;3131013;28;20505;-65
2022/01/29 04:36:54;;;;;;;5.18;2.75;;;;;;;2.70;49.44;100213.44;3126842;28;20103;-65
2022/01/29 04:38:28;;;;;;;4.65;2.58;;;;;;;2.69;49.47;100227.16;3128699;28;20493;-65
2022/01/29 04:39:59;;;;;;;4.65;2.40;;;;;;;2.70;49.46;100228.88;3131699;28;20053;-65
2022/01/29 04:41:33;;;;;;;4.30;2.35;;;;;;;2.72;49.44;100221.97;3132465;28;20068;-65
2022/01/29 04:43:04;;;;;;;7.40;2.92;;;;;;;2.67;49.65;100224.59;3129118;28;20114;-65
2022/01/29 04:44:36;;;;;;;6.10;3.00;;;;;;;2.69;49.67;100228.03;3123735;28;20619;-66
2022/01/29 04:46:08;;;;;;;7.38;2.65;;;;;;;2.71;49.78;100228.84;3122987;28;20049;-66
2022/01/29 04:47:39;;;;;;;5.57;2.70;;;;;;;2.71;49.54;100233.16;3129109;28;20045;-66
2022/01/29 04:49:11;;;;;;;6.70;2.75;;;;;;;2.73;49.61;100244.28;3126259;28;20175;-66
2022/01/29 04:50:43;;;;;;;5.85;2.53;;;;;;;2.73;49.62;100236.56;3125099;28;20470;-66
2022/01/29 04:52:14;;;;;;;5.90;2.88;;;;;;;2.73;49.77;100234.84;3126428;28;20153;-66
2022/01/29 04:53:45;;;;;;;4.95;2.78;;;;;;;2.73;49.82;100240.00;3121220;28;20049;-66
2022/01/29 04:55:17;;;;;;;6.60;2.58;;;;;;;2.69;49.87;100240.88;3128245;28;20122;-67
2022/01/29 04:56:51;;;;;;;7.07;2.60;;;;;;;2.73;49.85;100240.00;3124387;28;20098;-67
2022/01/29 04:58:22;;;;;;;;;;;;;;;2.55;50.17;100242.69;3124779;28;20049;-67
2022/01/29 04:59:53;;;;;;;6.35;2.80;;;;;;;2.62;50.21;100246.06;3130177;28;19921;-65
2022/01/29 05:01:25;;;;;;;6.38;3.20;;;;;;;2.66;49.98;100242.59;3120175;28;20049;-65
2022/01/29 05:03:05;;;;;;;10.30;3.67;;;;;;;2.69;50.20;100240.00;3125712;28;20056;-65
2022/01/29 05:04:37;;;;;;;7.47;3.65;;;;;;;2.69;50.07;100240.00;3125386;28;20114;-65
2022/01/29 05:06:10;;;;;;;9.30;4.20;;;;;;;2.70;50.03;100242.59;3122116;28;20045;-65
2022/01/29 05:07:42;;;;;;;9.15;3.63;;;;;;;2.72;50.18;100242.56;3129102;28;20140;-66
2022/01/29 05:09:14;;;;;;;6.47;3.30;;;;;;;2.71;50.00;100246.84;3126823;28;20052;-65
2022/01/29 05:10:46;;;;;;;6.55;3.33;;;;;;;2.72;49.77;100239.97;3128238;28;20098;-66
2022/01/29 05:12:24;;;;;;;8.98;2.83;;;;;;;2.69;50.09;100232.28;3131603;28;20045;-65
2022/01/29 05:13:55;;;;;;;6.50;3.22;;;;;;;2.71;50.03;100239.13;3120892;28;20049;-66
2022/01/29 05:15:35;;;;;;;5.85;2.90;;;;;;;2.74;50.19;100233.13;3128058;28;20053;-66
2022/01/29 05:26:49;;;;;;;6.38;3.17;;;;;;;2.72;50.26;100239.97;3125099;28;20060;-65
2022/01/29 05:28:26;;;;;;;4.75;2.50;;;;;;;2.67;50.63;100252.88;3091188;28;20191;-64
2022/01/29 05:29:58;;;;;;;5.38;3.00;;;;;;;2.68;50.63;100251.16;3131478;28;20055;-64
2022/01/29 05:31:30;;;;;;;6.93;3.05;;;;;;;2.71;50.59;100249.41;3127719;28;20115;-64
2022/01/29 05:33:01;;;;;;;7.18;2.72;;;;;;;2.66;50.40;100240.03;3123218;28;20503;-64
2022/01/29 05:34:33;;;;;;;4.72;3.00;;;;;;;2.71;50.72;100246.84;3121718;28;20049;-64
2022/01/29 05:36:05;;;;;;;5.65;2.75;;;;;;;2.76;50.57;100253.69;3128448;28;20095;-64
2022/01/29 05:37:37;;;;;;;6.32;3.25;;;;;;;2.77;50.71;100243.38;3128078;28;20048;-64
2022/01/29 05:39:09;;;;;;;5.75;3.35;;;;;;;2.77;50.68;100242.53;3123038;28;20149;-64
2022/01/29 05:40:41;;;;;;;9.25;3.58;;;;;;;2.78;50.77;100249.38;3116625;28;20403;-64
2022/01/29 05:42:13;;;;;;;8.98;3.10;;;;;;;2.81;50.62;100260.53;3111243;28;20498;-64
2022/01/29 05:43:48;;;;;;;6.75;3.67;;;;;;;2.85;50.67;100259.63;3118557;28;20057;-63
2022/01/29 05:45:20;;;;;;;9.18;3.67;;;;;;;2.86;50.62;100266.47;3114176;28;20443;-63
2022/01/29 05:46:52;;;;;;;7.30;3.65;;;;;;;2.88;50.69;100266.47;3115178;28;20139;-64
2022/01/29 05:48:24;;;;;;;7.78;3.53;;;;;;;2.93;50.45;100272.47;3120137;28;20535;-64
2022/01/29 05:49:56;;;;;;;7.20;3.55;;;;;;;2.93;50.46;100270.75;3115279;28;20053;-64
2022/01/29 05:51:30;;;;;;;7.85;3.05;;;;;;;2.99;50.45;100280.13;3119018;28;20076;-66
2022/01/29 05:53:02;;;;;;;7.03;3.42;;;;;;;3.04;50.38;100269.78;3119602;28;20132;-63
2022/01/29 05:54:34;;;;;;;8.18;4.32;;;;;;;3.09;50.39;100275.78;3113503;28;20046;-63
2022/01/29 05:56:07;;;;;;;9.32;4.00;;;;;;;3.15;50.22;100274.00;3119879;28;20049;-63
2022/01/29 05:57:39;;;;;;;9.38;4.00;;;;;;;3.16;50.20;100278.28;3112998;28;20172;-63
2022/01/29 05:59:12;;;;;;;7.25;4.00;;;;;;;3.25;49.98;100285.06;3116346;28;20057;-63
2022/01/29 06:00:44;;;;;;;;;;;;;;;3.15;50.05;100283.44;3117538;28;20056;-63
2022/01/29 06:02:16;;;;;;;7.60;3.60;;;;;;;3.28;49.98;100279.91;3111018;28;19983;-67
2022/01/29 06:03:48;;;;;;;7.20;3.63;;;;;;;3.43;49.68;100284.06;3117555;28;20078;-66
2022/01/29 06:05:20;;;;;;;10.57;3.85;;;;;;;3.52;49.53;100289.19;3117654;28;20522;-63
2022/01/29 06:06:52;;;;;;;8.35;4.25;;;;;;;3.61;49.44;100294.25;3111322;28;20045;-64
2022/01/29 06:08:24;;;;;;;9.45;3.70;;;;;;;3.69;49.22;100294.16;3119627;28;20855;-64
2022/01/29 06:09:56;;;;;;;11.05;3.75;;;;;;;3.75;49.01;100295.81;3113943;28;20225;-64
2022/01/29 06:11:28;;;;;;;5.88;3.10;;;;;;;3.76;48.92;100287.25;3117035;28;20225;-66
2022/01/29 06:13:06;;;;;;;9.35;2.95;;;;;;;3.94;48.81;100299.09;3120256;28;20134;-65
2022/01/29 06:14:40;;;;;;;5.28;2.92;;;;;;;4.01;48.72;100304.16;3112057;28;20079;-66
2022/01/29 06:16:12;;;;;;;6.65;2.90;;;;;;;4.07;48.71;100298.94;3119336;28;20153;-66
2022/01/29 06:17:44;;;;;;;6.35;2.85;;;;;;;4.13;48.52;100305.75;3120450;28;20473;-66
2022/01/29 06:19:16;;;;;;;8.32;3.35;;;;;;;4.20;48.35;100301.38;3119050;28;20761;-66
2022/01/29 06:20:50;;;;;;;8.02;2.88;;;;;;;4.23;48.38;100298.75;3117533;28;20438;-66
2022/01/29 06:22:23;;;;;;;7.93;3.30;;;;;;;4.14;48.19;100273.97;3110990;28;20413;-66
2022/01/29 06:23:57;;;;;;;6.45;2.97;;;;;;;4.38;48.20;100305.47;3118846;28;20076;-64
2022/01/29 06:25:29;;;;;;;7.78;3.63;;;;;;;4.45;48.07;100302.81;3114520;28;20045;-65
2022/01/29 06:27:01;;;;;;;9.20;3.40;;;;;;;4.49;47.81;100308.78;3115384;28;20053;-65
2022/01/29 06:28:34;;;;;;;8.07;3.38;;;;;;;4.55;47.80;100298.38;3120375;28;20586;-62
2022/01/29 06:30:08;;;;;;;9.73;3.45;;;;;;;4.62;48.12;100302.59;3109747;28;20553;-62
2022/01/29 06:31:41;;;;;;;7.20;3.45;;;;;;;4.68;48.03;100299.94;3117246;28;20052;-62
2022/01/29 06:33:15;;;;;;;10.43;4.45;;;;;;;4.78;47.75;100306.69;3117137;28;20057;-64
2022/01/29 06:34:46;;;;;;;10.50;5.55;;;;;;;4.85;47.66;100306.59;3111941;28;20057;-63
2022/01/29 06:36:18;;;;;;;9.35;3.50;;;;;;;4.81;47.50;100290.31;3117758;28;20351;-63
2022/01/29 06:37:50;;;;;;;7.32;3.40;;;;;;;5.01;47.32;100308.09;3117732;28;20705;-64
2022/01/29 06:39:22;;;;;;;5.18;2.90;;;;;;;5.08;47.28;100312.28;3113878;28;20533;-66
2022/01/29 06:40:55;;;;;;;10.75;3.58;;;;;;;5.18;47.23;100313.03;3121207;28;20049;-64
2022/01/29 06:42:27;;;;;;;9.73;3.75;;;;;;;5.29;46.86;100311.09;3122069;28;20056;-62
2022/01/29 06:43:59;;;;;;;6.68;3.22;;;;;;;5.42;46.70;100309.22;3117346;28;20052;-63
2022/01/29 06:45:33;;;;;;;8.43;3.92;;;;;;;5.56;46.46;100311.56;3117820;28;20084;-64
2022/01/29 06:47:05;;;;;;;7.30;3.70;;;;;;;5.65;46.31;100312.28;3120356;28;21811;-62
2022/01/29 06:48:38;;;;;;;8.10;3.97;;;;;;;5.75;46.02;100320.72;3118881;28;20049;-63
2022/01/29 06:50:11;;;;;;;10.50;4.78;;;;;;;5.85;45.91;100321.41;3121282;28;20053;-62
2022/01/29 06:51:43;;;;;;;7.95;3.10;;;;;;;5.91;45.83;100321.28;3119650;28;20053;-62
2022/01/29 06:53:14;;;;;;;6.10;3.40;;;;;;;6.01;45.89;100316.84;3119687;28;20055;-63
2022/01/29 06:54:46;;;;;;;6.28;3.13;;;;;;;6.08;45.52;100327.03;3114499;28;20102;-64
2022/01/29 06:56:18;;;;;;;6.53;3.55;;;;;;;6.21;45.33;100325.09;3118655;28;20044;-64
2022/01/29 06:57:51;;;;;;;5.97;3.25;;;;;;;6.33;45.25;100326.56;3118229;28;20142;-62
2022/01/29 06:59:23;;;;;;;7.38;3.50;;;;;;;6.43;45.00;100329.84;3115140;28;20141;-64
2022/01/29 07:00:56;;;;;;;7.70;4.13;;;;;;;6.51;44.66;100326.22;3120924;28;20492;-64
2022/01/29 07:02:28;;;;;;;5.28;3.03;;;;;;;6.53;44.58;100324.44;3113407;28;20245;-64
2022/01/29 07:04:00;;;;;;;9.43;4.30;;;;;;;6.51;44.35;100305.53;3116053;28;20650;-66
2022/01/29 07:05:32;;;;;;;8.60;3.92;;;;;;;6.69;44.00;100329.34;3120843;28;20534;-66
2022/01/29 07:07:05;;;;;;;5.38;3.25;;;;;;;6.74;43.92;100330.06;3111690;28;20053;-66
2022/01/29 07:08:38;;;;;;;8.52;4.40;;;;;;;6.81;43.76;100331.66;3118453;28;20436;-66
2022/01/29 07:10:11;;;;;;;10.25;4.57;;;;;;;6.88;43.74;100328.03;3116406;28;20064;-65
2022/01/29 07:11:44;;;;;;;13.52;5.20;;;;;;;6.94;43.50;100330.50;3113701;28;20107;-63
2022/01/29 07:13:16;;;;;;;11.32;4.93;;;;;;;6.99;43.45;100333.84;3121842;28;20091;-63
2022/01/29 07:14:49;;;;;;;7.63;4.20;;;;;;;7.08;43.25;100327.63;3123845;28;20140;-65
2022/01/29 07:16:23;;;;;;;12.45;5.57;;;;;;;7.05;43.14;100323.34;3121621;28;20048;-65
2022/01/29 07:17:55;;;;;;;9.10;4.68;;;;;;;7.24;43.02;100331.53;3123528;28;20075;-62
2022/01/29 07:19:26;;;;;;;12.98;4.97;;;;;;;7.37;43.08;100333.88;3120722;28;20112;-62
2022/01/29 07:20:59;;;;;;;18.10;5.88;;;;;;;7.50;42.79;100335.28;3119864;28;20441;-63
2022/01/29 07:22:31;;;;;;;10.23;4.65;;;;;;;7.64;42.84;100335.78;3121790;28;20049;-62
2022/01/29 07:24:03;;;;;;;10.73;4.45;;;;;;;7.79;42.30;100331.97;3122067;28;20334;-63
2022/01/29 07:25:35;;;;;;;7.50;3.83;;;;;;;7.90;42.04;100332.56;3120940;28;20179;-63